createdAt,value
2022-11-01T00:02:03.345Z,14.10
2022-11-01T00:04:31.466Z,13.90
2022-11-01T00:07:18.124Z,13.90
2022-11-01T00:09:46.074Z,13.90
2022-11-01T00:12:15.603Z,14.00
2022-11-01T00:14:43.715Z,14.00
2022-11-01T00:17:11.777Z,14.10
2022-11-01T00:19:39.989Z,14.10
2022-11-01T00:22:08.015Z,14.10
2022-11-01T00:24:36.390Z,14.10
2022-11-01T00:27:04.489Z,14.10
2022-11-01T00:29:33.926Z,14.00
2022-11-01T00:32:02.077Z,14.10
2022-11-01T00:34:30.066Z,14.10
2022-11-01T00:36:58.094Z,14.10
2022-11-01T00:39:30.492Z,14.10
2022-11-01T00:41:59.437Z,14.10
2022-11-01T00:44:27.477Z,14.10
2022-11-01T00:46:56.892Z,14.10
2022-11-01T00:49:25.045Z,14.10
2022-11-01T00:51:53.293Z,14.10
2022-11-01T00:54:21.334Z,14.10
2022-11-01T00:56:49.445Z,14.10
2022-11-01T00:59:17.514Z,14.00
2022-11-01T01:01:45.620Z,14.10
2022-11-01T01:04:15.228Z,14.10
2022-11-01T01:06:43.190Z,14.10
2022-11-01T01:09:12.069Z,14.00
2022-11-01T01:11:40.065Z,14.10
2022-11-01T01:14:08.072Z,14.10
2022-11-01T01:16:36.164Z,14.10
2022-11-01T01:19:04.341Z,14.10
2022-11-01T01:21:33.723Z,14.00
2022-11-01T01:24:01.859Z,14.10
2022-11-01T01:26:29.848Z,14.10
2022-11-01T01:28:57.909Z,14.00
2022-11-01T01:31:25.925Z,14.10
2022-11-01T01:33:53.996Z,14.10
2022-11-01T01:36:22.011Z,14.10
2022-11-01T01:38:53.857Z,14.10
2022-11-01T01:41:39.664Z,14.00
2022-11-01T01:44:41.005Z,14.00
2022-11-01T01:47:10.339Z,14.00
2022-11-01T01:49:41.599Z,13.90
2022-11-01T01:52:11.350Z,13.80
2022-11-01T01:54:41.011Z,13.60
2022-11-01T01:57:10.196Z,13.60
2022-11-01T01:59:38.948Z,13.50
2022-11-01T02:02:07.423Z,13.50
2022-11-01T02:04:41.030Z,13.60
2022-11-01T02:07:09.655Z,13.70
2022-11-01T02:09:38.927Z,13.70
2022-11-01T02:12:09.604Z,13.70
2022-11-01T02:14:38.281Z,13.80
2022-11-01T02:17:15.290Z,13.80
2022-11-01T02:20:04.471Z,13.80
2022-11-01T02:22:51.073Z,13.80
2022-11-01T02:25:50.164Z,13.80
2022-11-01T02:28:42.079Z,13.70
2022-11-01T02:31:26.622Z,13.50
2022-11-01T02:33:59.030Z,13.40
2022-11-01T02:36:33.329Z,13.40
2022-11-01T02:39:08.506Z,13.30
2022-11-01T02:41:44.603Z,13.30
2022-11-01T02:44:17.229Z,13.20
2022-11-01T02:47:02.421Z,13.20
2022-11-01T02:49:35.034Z,13.20
2022-11-01T02:52:04.968Z,13.10
2022-11-01T02:54:34.621Z,13.20
2022-11-01T02:57:08.800Z,13.30
2022-11-01T02:59:45.346Z,13.40
2022-11-01T03:02:19.562Z,13.50
2022-11-01T03:04:49.641Z,13.60
2022-11-01T03:07:18.398Z,13.60
2022-11-01T03:09:46.796Z,13.60
2022-11-01T03:12:21.354Z,13.60
2022-11-01T03:14:56.978Z,13.40
2022-11-01T03:17:32.687Z,13.40
2022-11-01T03:20:08.126Z,13.30
2022-11-01T03:22:43.891Z,13.20
2022-11-01T03:25:31.168Z,13.20
2022-11-01T03:28:02.010Z,13.20
2022-11-01T03:30:32.746Z,13.20
2022-11-01T03:33:01.480Z,13.20
2022-11-01T03:35:36.616Z,13.20
2022-11-01T03:38:10.766Z,13.20
2022-11-01T03:40:43.255Z,13.20
2022-11-01T03:43:15.028Z,13.20
2022-11-01T03:45:44.107Z,13.30
2022-11-01T03:48:12.260Z,13.30
2022-11-01T03:50:48.455Z,13.30
2022-11-01T03:53:17.244Z,13.20
2022-11-01T03:55:45.282Z,13.20
2022-11-01T03:58:13.873Z,13.20
2022-11-01T04:00:43.988Z,13.20
2022-11-01T04:03:13.470Z,13.20
2022-11-01T04:05:43.648Z,13.20
2022-11-01T04:08:12.539Z,13.20
2022-11-01T04:10:40.698Z,13.30
2022-11-01T04:13:09.662Z,13.30
2022-11-01T04:15:55.111Z,13.50
2022-11-01T04:18:43.047Z,13.50
2022-11-01T04:21:15.445Z,13.50
2022-11-01T04:23:44.272Z,13.60
2022-11-01T04:26:14.540Z,13.50
2022-11-01T04:28:44.786Z,13.60
2022-11-01T04:31:12.865Z,13.60
2022-11-01T04:33:40.768Z,13.60
2022-11-01T04:36:09.563Z,13.60
2022-11-01T04:38:38.924Z,13.60
2022-11-01T04:41:07.035Z,13.60
2022-11-01T04:43:34.968Z,13.60
2022-11-01T04:46:03.421Z,13.60
2022-11-01T04:48:32.410Z,13.60
2022-11-01T04:51:02.570Z,13.60
2022-11-01T04:53:30.792Z,13.60
2022-11-01T04:56:00.119Z,13.60
2022-11-01T04:58:28.058Z,13.60
2022-11-01T05:00:56.115Z,13.60
2022-11-01T05:03:24.118Z,13.60
2022-11-01T05:05:52.085Z,13.70
2022-11-01T05:08:20.159Z,13.70
2022-11-01T05:10:48.133Z,13.60
2022-11-01T05:13:17.603Z,13.60
2022-11-01T05:15:59.528Z,13.60
2022-11-01T05:18:33.744Z,13.50
2022-11-01T05:21:02.331Z,13.50
2022-11-01T05:23:30.334Z,13.40
2022-11-01T05:25:58.393Z,13.40
2022-11-01T05:28:28.065Z,13.50
2022-11-01T05:30:56.055Z,13.50
2022-11-01T05:33:24.312Z,13.50
2022-11-01T05:35:52.548Z,13.50
2022-11-01T05:38:20.644Z,13.50
2022-11-01T05:40:48.748Z,13.50
2022-11-01T05:43:16.865Z,13.50
2022-11-01T05:45:46.356Z,13.50
2022-11-01T05:48:14.466Z,13.50
2022-11-01T05:50:44.815Z,13.50
2022-11-01T05:53:12.861Z,13.50
2022-11-01T05:55:40.936Z,13.50
2022-11-01T05:58:09.067Z,13.50
2022-11-01T06:00:37.438Z,13.50
2022-11-01T06:03:08.609Z,13.50
2022-11-01T06:05:39.013Z,13.50
2022-11-01T06:08:07.781Z,13.50
2022-11-01T06:10:35.880Z,13.60
2022-11-01T06:13:04.416Z,13.60
2022-11-01T06:15:34.450Z,13.50
2022-11-01T06:18:07.077Z,13.50
2022-11-01T06:20:36.892Z,13.50
2022-11-01T06:23:10.316Z,13.40
2022-11-01T06:25:38.931Z,13.30
2022-11-01T06:28:07.392Z,13.20
2022-11-01T06:30:35.517Z,13.20
2022-11-01T06:33:03.965Z,13.20
2022-11-01T06:35:34.197Z,13.20
2022-11-01T06:38:06.858Z,13.20
2022-11-01T06:40:34.901Z,13.20
2022-11-01T06:43:19.450Z,13.20
2022-11-01T06:45:47.743Z,13.20
2022-11-01T06:48:15.909Z,13.30
2022-11-01T06:50:46.958Z,13.30
2022-11-01T06:53:15.216Z,13.30
2022-11-01T06:55:43.571Z,13.30
2022-11-01T06:58:11.888Z,13.30
2022-11-01T07:00:41.166Z,13.40
2022-11-01T07:03:15.089Z,13.40
2022-11-01T07:05:43.505Z,13.40
2022-11-01T07:08:16.244Z,13.30
2022-11-01T07:10:44.775Z,13.40
2022-11-01T07:13:14.543Z,13.40
2022-11-01T07:15:42.618Z,13.50
2022-11-01T07:18:10.823Z,13.50
2022-11-01T07:20:42.443Z,13.50
2022-11-01T07:23:14.278Z,13.40
2022-11-01T07:25:43.124Z,13.40
2022-11-01T07:28:12.091Z,13.40
2022-11-01T07:30:40.493Z,13.40
2022-11-01T07:33:08.761Z,13.50
2022-11-01T07:35:37.356Z,13.50
2022-11-01T07:38:09.692Z,13.50
2022-11-01T07:40:41.745Z,13.60
2022-11-01T07:43:10.086Z,13.60
2022-11-01T07:45:38.465Z,13.70
2022-11-01T07:48:10.652Z,13.70
2022-11-01T07:50:40.614Z,13.80
2022-11-01T07:53:10.083Z,13.80
2022-11-01T07:55:38.210Z,13.80
2022-11-01T07:58:08.418Z,13.80
2022-11-01T08:00:37.068Z,13.80
2022-11-01T08:03:06.420Z,13.90
2022-11-01T08:05:35.229Z,14.00
2022-11-01T08:08:04.423Z,14.00
2022-11-01T08:10:33.718Z,14.10
2022-11-01T08:13:04.377Z,14.10
2022-11-01T08:15:34.227Z,14.20
2022-11-01T08:18:03.598Z,14.30
2022-11-01T08:20:32.309Z,14.30
2022-11-01T08:23:00.732Z,14.30
2022-11-01T08:25:29.370Z,14.30
2022-11-01T08:28:10.258Z,14.40
2022-11-01T08:30:41.541Z,14.50
2022-11-01T08:33:10.252Z,14.50
2022-11-01T08:35:45.859Z,14.50
2022-11-01T08:38:17.254Z,14.50
2022-11-01T08:40:45.403Z,14.60
2022-11-01T08:43:13.754Z,14.60
2022-11-01T08:45:43.253Z,14.60
2022-11-01T08:48:11.575Z,14.60
2022-11-01T08:50:39.991Z,14.60
2022-11-01T08:53:09.312Z,14.70
2022-11-01T08:55:41.722Z,14.60
2022-11-01T08:58:10.582Z,14.60
2022-11-01T09:00:38.806Z,14.70
2022-11-01T09:03:08.257Z,14.60
2022-11-01T09:05:37.230Z,14.70
2022-11-01T09:08:06.021Z,14.70
2022-11-01T09:10:34.657Z,14.70
2022-11-01T09:13:04.728Z,14.70
2022-11-01T09:15:33.681Z,14.60
2022-11-01T09:18:08.104Z,14.60
2022-11-01T09:20:36.246Z,14.70
2022-11-01T09:23:04.862Z,14.60
2022-11-01T09:25:33.288Z,14.70
2022-11-01T09:28:01.351Z,14.70
2022-11-01T09:30:30.343Z,14.70
2022-11-01T09:32:58.504Z,14.70
2022-11-01T09:35:28.107Z,14.80
2022-11-01T09:37:59.156Z,14.80
2022-11-01T09:40:28.430Z,14.80
2022-11-01T09:43:01.384Z,14.90
2022-11-01T09:45:31.904Z,14.90
2022-11-01T09:48:04.576Z,14.90
2022-11-01T09:50:38.169Z,15.00
2022-11-01T09:53:15.020Z,15.10
2022-11-01T09:55:48.840Z,15.20
2022-11-01T09:58:26.740Z,15.20
2022-11-01T10:01:05.104Z,15.30
2022-11-01T10:03:53.054Z,15.30
2022-11-01T10:06:25.225Z,15.40
2022-11-01T10:09:07.165Z,15.40
2022-11-01T10:11:48.390Z,15.40
2022-11-01T10:14:39.056Z,15.50
2022-11-01T10:17:13.764Z,15.50
2022-11-01T10:19:43.925Z,15.50
2022-11-01T10:22:18.159Z,15.50
2022-11-01T10:24:51.581Z,15.50
2022-11-01T10:27:26.723Z,15.50
2022-11-01T10:30:01.161Z,15.50
2022-11-01T10:32:36.232Z,15.50
2022-11-01T10:35:10.771Z,15.60
2022-11-01T10:37:57.281Z,15.60
2022-11-01T10:40:37.644Z,15.60
2022-11-01T10:43:12.343Z,15.60
2022-11-01T10:45:47.287Z,15.60
2022-11-01T10:48:23.040Z,15.70
2022-11-01T10:50:52.005Z,15.60
2022-11-01T10:53:22.783Z,15.70
2022-11-01T10:55:53.461Z,15.60
2022-11-01T10:58:32.914Z,15.70
2022-11-01T11:01:24.299Z,15.70
2022-11-01T11:03:53.268Z,15.80
2022-11-01T11:06:21.520Z,15.90
2022-11-01T11:08:54.352Z,15.90
2022-11-01T11:11:32.210Z,16.00
2022-11-01T11:14:02.778Z,16.10
2022-11-01T11:16:35.381Z,16.20
2022-11-01T11:19:16.068Z,16.20
2022-11-01T11:21:45.696Z,16.30
2022-11-01T11:24:23.318Z,16.30
2022-11-01T11:26:54.537Z,16.40
2022-11-01T11:29:40.524Z,16.50
2022-11-01T11:32:15.834Z,16.60
2022-11-01T11:34:44.127Z,16.70
2022-11-01T11:37:21.383Z,16.70
2022-11-01T11:40:19.553Z,16.80
2022-11-01T11:42:48.720Z,16.80
2022-11-01T11:45:29.580Z,16.90
2022-11-01T11:48:15.130Z,16.80
2022-11-01T11:50:44.197Z,16.70
2022-11-01T11:53:19.122Z,16.70
2022-11-01T11:55:53.743Z,16.70
2022-11-01T11:58:26.977Z,16.70
2022-11-01T12:01:02.562Z,16.60
2022-11-01T12:03:31.698Z,16.60
2022-11-01T12:06:02.285Z,16.50
2022-11-01T12:08:38.822Z,16.50
2022-11-01T12:11:08.269Z,16.50
2022-11-01T12:13:38.083Z,16.40
2022-11-01T12:16:24.678Z,16.40
2022-11-01T12:18:56.005Z,16.40
2022-11-01T12:21:27.736Z,16.40
2022-11-01T12:24:00.198Z,16.40
2022-11-01T12:26:32.401Z,16.40
2022-11-01T12:29:08.429Z,16.40
2022-11-01T12:31:37.417Z,16.40
2022-11-01T12:34:22.532Z,16.50
2022-11-01T12:36:56.011Z,16.50
2022-11-01T12:39:40.354Z,16.50
2022-11-01T12:42:15.304Z,16.60
2022-11-01T12:44:46.983Z,16.60
2022-11-01T12:47:20.877Z,16.60
2022-11-01T12:49:55.751Z,16.60
2022-11-01T12:52:29.080Z,16.60
2022-11-01T12:55:04.703Z,16.60
2022-11-01T12:57:34.930Z,16.60
2022-11-01T13:00:05.330Z,16.60
2022-11-01T13:02:54.286Z,16.60
2022-11-01T13:05:26.222Z,16.50
2022-11-01T13:08:05.875Z,16.40
2022-11-01T13:10:38.240Z,16.40
2022-11-01T13:13:19.645Z,16.30
2022-11-01T13:15:58.334Z,16.40
2022-11-01T13:18:40.461Z,16.40
2022-11-01T13:21:14.529Z,16.30
2022-11-01T13:23:50.018Z,16.30
2022-11-01T13:26:24.881Z,16.30
2022-11-01T13:29:14.828Z,16.20
2022-11-01T13:31:55.345Z,16.20
2022-11-01T13:34:42.514Z,16.20
2022-11-01T13:37:21.841Z,16.10
2022-11-01T13:40:04.656Z,16.00
2022-11-01T13:42:39.497Z,16.00
2022-11-01T13:45:43.499Z,16.00
2022-11-01T13:48:19.874Z,15.90
2022-11-01T13:51:02.463Z,15.90
2022-11-01T13:53:34.631Z,16.00
2022-11-01T13:56:08.478Z,15.90
2022-11-01T13:58:36.953Z,15.90
2022-11-01T14:01:30.075Z,15.90
2022-11-01T14:04:48.269Z,16.00
2022-11-01T14:07:17.820Z,16.00
2022-11-01T14:09:47.589Z,15.90
2022-11-01T14:12:37.285Z,15.90
2022-11-01T14:15:18.953Z,15.90
2022-11-01T14:17:56.203Z,15.80
2022-11-01T14:20:42.985Z,15.80
2022-11-01T14:23:52.872Z,15.80
2022-11-01T14:26:39.616Z,15.70
2022-11-01T14:29:12.687Z,15.70
2022-11-01T14:31:44.480Z,15.70
2022-11-01T14:34:25.274Z,15.60
2022-11-01T14:36:56.291Z,15.60
2022-11-01T14:39:32.316Z,15.60
2022-11-01T14:42:02.518Z,15.60
2022-11-01T14:44:34.800Z,15.60
2022-11-01T14:47:07.528Z,15.60
2022-11-01T14:49:43.351Z,15.50
2022-11-01T14:52:17.344Z,15.50
2022-11-01T14:54:47.634Z,15.50
2022-11-01T14:57:26.005Z,15.40
2022-11-01T14:59:54.270Z,15.40
2022-11-01T15:02:23.698Z,15.30
2022-11-01T15:04:59.291Z,15.30
2022-11-01T15:07:31.209Z,15.30
2022-11-01T15:10:02.019Z,15.20
2022-11-01T15:12:34.435Z,15.20
2022-11-01T15:15:03.914Z,15.20
2022-11-01T15:17:35.475Z,15.20
2022-11-01T15:20:14.736Z,15.20
2022-11-01T15:22:43.682Z,15.20
2022-11-01T15:25:22.280Z,15.20
2022-11-01T15:27:51.613Z,15.10
2022-11-01T15:30:21.973Z,15.00
2022-11-01T15:32:54.053Z,15.00
2022-11-01T15:35:25.618Z,15.10
2022-11-01T15:37:57.372Z,15.00
2022-11-01T15:40:29.088Z,15.00
2022-11-01T15:42:58.026Z,14.90
2022-11-01T15:45:30.192Z,14.90
2022-11-01T15:48:00.976Z,15.00
2022-11-01T15:50:34.960Z,14.90
2022-11-01T15:53:04.567Z,14.90
2022-11-01T15:55:36.115Z,14.90
2022-11-01T15:58:08.880Z,14.80
2022-11-01T16:00:38.913Z,14.80
2022-11-01T16:03:13.218Z,14.80
2022-11-01T16:05:49.576Z,14.80
2022-11-01T16:08:23.352Z,14.70
2022-11-01T16:10:51.705Z,14.70
2022-11-01T16:13:21.560Z,14.60
2022-11-01T16:16:02.350Z,14.70
2022-11-01T16:18:35.285Z,14.60
2022-11-01T16:21:07.252Z,14.50
2022-11-01T16:23:35.744Z,14.50
2022-11-01T16:26:06.145Z,14.50
2022-11-01T16:28:40.504Z,14.50
2022-11-01T16:31:20.497Z,14.50
2022-11-01T16:33:49.185Z,14.50
2022-11-01T16:36:42.827Z,14.50
2022-11-01T16:39:28.649Z,14.50
2022-11-01T16:41:57.441Z,14.50
2022-11-01T16:44:25.780Z,14.50
2022-11-01T16:46:55.321Z,14.50
2022-11-01T16:49:25.768Z,14.40
2022-11-01T16:51:56.715Z,14.40
2022-11-01T16:54:25.223Z,14.40
2022-11-01T16:56:55.507Z,14.40
2022-11-01T16:59:32.431Z,14.40
2022-11-01T17:02:02.261Z,14.30
2022-11-01T17:04:30.913Z,14.30
2022-11-01T17:07:00.399Z,14.30
2022-11-01T17:09:31.063Z,14.30
2022-11-01T17:11:59.051Z,14.30
2022-11-01T17:14:27.168Z,14.30
2022-11-01T17:16:56.241Z,14.30
2022-11-01T17:19:28.761Z,14.30
2022-11-01T17:21:59.384Z,14.30
2022-11-01T17:24:28.975Z,14.40
2022-11-01T17:27:00.524Z,14.40
2022-11-01T17:29:29.440Z,14.40
2022-11-01T17:31:57.585Z,14.40
2022-11-01T17:34:26.407Z,14.30
2022-11-01T17:36:54.755Z,14.30
2022-11-01T17:39:23.129Z,14.30
2022-11-01T17:41:52.571Z,14.20
2022-11-01T17:44:20.633Z,14.20
2022-11-01T17:46:48.698Z,14.20
2022-11-01T17:49:21.465Z,14.20
2022-11-01T17:51:54.484Z,14.20
2022-11-01T17:54:23.531Z,14.20
2022-11-01T17:56:53.318Z,14.10
2022-11-01T17:59:21.581Z,14.10
2022-11-01T18:01:49.696Z,14.10
2022-11-01T18:04:17.761Z,14.10
2022-11-01T18:06:45.894Z,14.00
2022-11-01T18:09:20.537Z,13.90
2022-11-01T18:12:00.697Z,13.90
2022-11-01T18:14:49.148Z,14.00
2022-11-01T18:17:33.018Z,13.90
2022-11-01T18:20:06.837Z,13.90
2022-11-01T18:22:42.218Z,13.80
2022-11-01T18:25:21.605Z,13.80
2022-11-01T18:27:51.204Z,13.70
2022-11-01T18:30:27.187Z,13.70
2022-11-01T18:33:00.192Z,13.70
2022-11-01T18:35:34.012Z,13.70
2022-11-01T18:38:17.813Z,13.60
2022-11-01T18:40:57.160Z,13.70
2022-11-01T18:43:29.286Z,13.80
2022-11-01T18:46:23.277Z,13.70
2022-11-01T18:48:45.626Z,13.70
2022-11-01T18:51:19.638Z,13.70
2022-11-01T18:53:48.398Z,13.60
2022-11-01T18:56:21.606Z,13.50
2022-11-01T18:58:52.681Z,13.50
2022-11-01T19:01:22.350Z,13.40
2022-11-01T19:04:01.076Z,13.40
2022-11-01T19:06:32.073Z,13.30
2022-11-01T19:09:03.352Z,13.30
2022-11-01T19:11:33.024Z,13.30
2022-11-01T19:14:06.162Z,13.20
2022-11-01T19:16:34.184Z,13.20
2022-11-01T19:19:02.172Z,13.20
2022-11-01T19:21:35.745Z,13.10
2022-11-01T19:24:11.070Z,13.20
2022-11-01T19:26:43.588Z,13.20
2022-11-01T19:29:17.634Z,13.20
2022-11-01T19:31:47.956Z,13.20
2022-11-01T19:34:21.555Z,13.20
2022-11-01T19:36:50.217Z,13.20
2022-11-01T19:39:24.303Z,13.20
2022-11-01T19:41:54.633Z,13.30
2022-11-01T19:44:26.633Z,13.40
2022-11-01T19:46:58.528Z,13.50
2022-11-01T19:49:29.759Z,13.50
2022-11-01T19:52:21.556Z,13.60
2022-11-01T19:54:51.605Z,13.60
2022-11-01T19:57:29.612Z,13.60
2022-11-01T20:00:13.537Z,13.50
2022-11-01T20:02:42.304Z,13.50
2022-11-01T20:05:27.340Z,13.40
2022-11-01T20:08:10.503Z,13.30
2022-11-01T20:10:38.695Z,13.30
2022-11-01T20:13:06.871Z,13.30
2022-11-01T20:15:36.538Z,13.20
2022-11-01T20:18:05.791Z,13.10
2022-11-01T20:20:34.456Z,13.20
2022-11-01T20:23:26.705Z,13.20
2022-11-01T20:25:51.199Z,13.20
2022-11-01T20:28:19.652Z,13.20
2022-11-01T20:30:49.417Z,13.20
2022-11-01T20:33:19.937Z,13.20
2022-11-01T20:35:49.049Z,13.20
2022-11-01T20:40:48.139Z,13.10
2022-11-01T20:43:16.313Z,13.20
2022-11-01T20:45:44.739Z,13.10
2022-11-01T20:48:14.848Z,13.10
2022-11-01T20:50:43.093Z,13.10
2022-11-01T20:53:11.136Z,13.00
2022-11-01T20:55:39.325Z,13.00
2022-11-01T20:58:07.916Z,12.90
2022-11-01T21:00:36.335Z,12.80
2022-11-01T21:03:13.052Z,12.80
2022-11-01T21:05:43.750Z,12.80
2022-11-01T21:08:22.876Z,13.00
2022-11-01T21:10:56.426Z,13.10
2022-11-01T21:13:27.880Z,13.20
2022-11-01T21:15:57.723Z,13.30
2022-11-01T21:18:52.054Z,13.40
2022-11-01T21:21:33.852Z,13.50
2022-11-01T21:24:21.764Z,13.60
2022-11-01T21:26:54.984Z,13.60
2022-11-01T21:29:27.858Z,13.60
2022-11-01T21:31:56.698Z,13.70
2022-11-01T21:34:27.471Z,13.70
2022-11-01T21:36:58.884Z,13.70
2022-11-01T21:39:28.704Z,13.70
2022-11-01T21:41:58.962Z,13.70
2022-11-01T21:44:29.721Z,13.70
2022-11-01T21:47:02.312Z,13.70
2022-11-01T21:49:31.884Z,13.70
2022-11-01T21:52:04.020Z,13.70
2022-11-01T21:54:34.244Z,13.70
2022-11-01T21:57:03.000Z,13.70
2022-11-01T21:59:31.098Z,13.70
2022-11-01T22:02:01.228Z,13.70
2022-11-01T22:04:30.952Z,13.70
2022-11-01T22:07:01.785Z,13.60
2022-11-01T22:09:50.139Z,13.70
2022-11-01T22:12:20.269Z,13.60
2022-11-01T22:14:48.342Z,13.60
2022-11-01T22:17:16.396Z,13.60
2022-11-01T22:19:45.144Z,13.60
2022-11-01T22:22:15.464Z,13.60
2022-11-01T22:24:43.606Z,13.60
2022-11-01T22:27:11.705Z,13.60
2022-11-01T22:29:39.785Z,13.60
2022-11-01T22:32:07.995Z,13.60
2022-11-01T22:34:35.993Z,13.60
2022-11-01T22:37:12.438Z,13.60
2022-11-01T22:39:42.628Z,13.60
2022-11-01T22:42:12.827Z,13.60
2022-11-01T22:44:42.273Z,13.60
2022-11-01T22:47:21.181Z,13.60
2022-11-01T22:49:52.554Z,13.50
2022-11-01T22:52:30.374Z,13.60
2022-11-01T22:55:05.329Z,13.50
2022-11-01T22:57:34.779Z,13.50
2022-11-01T23:00:22.312Z,13.50
2022-11-01T23:02:50.471Z,13.50
2022-11-01T23:05:24.481Z,13.40
2022-11-01T23:07:53.945Z,13.30
2022-11-01T23:10:26.884Z,13.20
2022-11-01T23:13:18.351Z,13.00
2022-11-01T23:15:46.766Z,12.90
2022-11-01T23:18:20.241Z,12.70
2022-11-01T23:20:55.222Z,12.70
2022-11-01T23:23:23.561Z,12.60
2022-11-01T23:25:54.202Z,12.50
2022-11-01T23:28:24.119Z,12.60
2022-11-01T23:30:53.719Z,12.60
2022-11-01T23:33:23.194Z,12.70
2022-11-01T23:35:54.487Z,12.70
2022-11-01T23:38:29.932Z,12.80
2022-11-01T23:40:59.443Z,12.70
2022-11-01T23:43:34.056Z,12.80
2022-11-01T23:46:02.829Z,12.90
2022-11-01T23:48:31.044Z,13.00
2022-11-01T23:50:59.553Z,13.00
2022-11-01T23:53:33.880Z,13.10
2022-11-01T23:56:06.927Z,13.10
2022-11-01T23:58:36.878Z,13.10
